createdAt,value
2019-04-27T00:01:31.462Z,11.20
2019-04-27T00:03:59.541Z,11.10
2019-04-27T00:06:27.642Z,11.20
2019-04-27T00:08:55.720Z,11.20
2019-04-27T00:11:23.801Z,11.20
2019-04-27T00:13:50.205Z,11.20
2019-04-27T00:16:18.280Z,11.10
2019-04-27T00:18:49.686Z,11.20
2019-04-27T00:21:16.447Z,11.20
2019-04-27T00:23:44.525Z,11.30
2019-04-27T00:26:10.694Z,11.30
2019-04-27T00:28:37.003Z,11.30
2019-04-27T00:31:03.402Z,11.40
2019-04-27T00:33:29.646Z,11.30
2019-04-27T00:35:57.849Z,11.40
2019-04-27T00:38:24.031Z,11.40
2019-04-27T00:40:53.719Z,11.40
2019-04-27T00:43:20.209Z,11.40
2019-04-27T00:45:46.382Z,11.40
2019-04-27T00:48:13.376Z,11.40
2019-04-27T00:50:40.518Z,11.50
2019-04-27T00:53:06.686Z,11.50
2019-04-27T00:55:34.767Z,11.60
2019-04-27T00:58:04.149Z,11.60
2019-04-27T01:00:30.458Z,11.60
2019-04-27T01:02:58.547Z,11.60
2019-04-27T01:05:26.730Z,11.50
2019-04-27T01:07:53.723Z,11.50
2019-04-27T01:10:20.297Z,11.50
2019-04-27T01:12:46.502Z,11.50
2019-04-27T01:15:13.761Z,11.50
2019-04-27T01:17:40.263Z,11.50
2019-04-27T01:20:06.572Z,11.50
2019-04-27T01:22:32.735Z,11.50
2019-04-27T01:24:59.449Z,11.40
2019-04-27T01:27:28.977Z,11.40
2019-04-27T01:29:55.825Z,11.20
2019-04-27T01:32:21.998Z,11.20
2019-04-27T01:34:49.409Z,11.10
2019-04-27T01:37:15.672Z,11.20
2019-04-27T01:39:41.838Z,11.10
2019-04-27T01:42:08.902Z,11.00
2019-04-27T01:44:36.119Z,11.00
2019-04-27T01:47:02.301Z,10.90
2019-04-27T01:49:29.485Z,10.90
2019-04-27T01:51:56.059Z,10.90
2019-04-27T01:54:24.143Z,10.90
2019-04-27T01:56:50.340Z,11.00
2019-04-27T01:59:16.510Z,10.90
2019-04-27T02:01:44.590Z,11.00
2019-04-27T02:04:12.695Z,11.00
2019-04-27T02:06:39.274Z,11.00
2019-04-27T02:09:05.846Z,11.10
2019-04-27T02:11:32.152Z,11.00
2019-04-27T02:13:59.444Z,11.00
2019-04-27T02:16:25.790Z,11.00
2019-04-27T02:18:52.039Z,11.00
2019-04-27T02:21:19.289Z,11.10
2019-04-27T02:23:45.586Z,11.10
2019-04-27T02:26:11.786Z,11.00
2019-04-27T02:28:39.862Z,11.00
2019-04-27T02:31:09.808Z,11.00
2019-04-27T02:33:35.960Z,10.90
2019-04-27T02:36:02.251Z,10.80
2019-04-27T02:38:30.519Z,10.70
2019-04-27T02:40:59.583Z,10.70
2019-04-27T02:43:29.386Z,10.70
2019-04-27T02:45:55.165Z,10.70
2019-04-27T02:48:21.367Z,10.80
2019-04-27T02:50:50.068Z,10.80
2019-04-27T02:53:19.491Z,10.80
2019-04-27T02:55:44.733Z,10.80
2019-04-27T02:58:13.026Z,10.70
2019-04-27T03:00:40.044Z,10.70
2019-04-27T03:03:10.155Z,10.70
2019-04-27T03:05:36.547Z,10.60
2019-04-27T03:08:02.727Z,10.60
2019-04-27T03:10:30.845Z,10.60
2019-04-27T03:13:00.071Z,10.70
2019-04-27T03:15:30.364Z,10.70
2019-04-27T03:17:59.686Z,10.80
2019-04-27T03:20:29.965Z,10.80
2019-04-27T03:23:00.031Z,10.80
2019-04-27T03:25:31.965Z,10.80
2019-04-27T03:28:00.035Z,10.80
2019-04-27T03:30:25.567Z,10.90
2019-04-27T03:32:56.676Z,10.90
2019-04-27T03:35:22.763Z,11.00
2019-04-27T03:37:50.039Z,11.00
2019-04-27T03:40:15.816Z,10.90
2019-04-27T03:42:43.883Z,10.80
2019-04-27T03:45:10.980Z,10.70
2019-04-27T03:47:40.276Z,10.60
2019-04-27T03:50:05.701Z,10.60
2019-04-27T03:52:33.781Z,10.50
2019-04-27T03:55:02.524Z,10.50
2019-04-27T03:57:30.599Z,10.40
2019-04-27T03:59:59.703Z,10.40
2019-04-27T04:02:26.998Z,10.50
2019-04-27T04:04:53.162Z,10.50
2019-04-27T04:07:19.775Z,10.50
2019-04-27T04:09:46.135Z,10.60
2019-04-27T04:12:14.213Z,10.60
2019-04-27T04:14:42.829Z,10.70
2019-04-27T04:17:12.692Z,10.60
2019-04-27T04:19:48.939Z,10.70
2019-04-27T04:22:06.258Z,10.70
2019-04-27T04:24:32.457Z,10.80
2019-04-27T04:26:59.898Z,10.80
2019-04-27T04:29:26.313Z,10.70
2019-04-27T04:31:52.491Z,10.70
2019-04-27T04:34:19.745Z,10.70
2019-04-27T04:36:46.348Z,10.70
2019-04-27T04:39:12.909Z,10.70
2019-04-27T04:41:43.636Z,10.70
2019-04-27T04:44:12.467Z,10.70
2019-04-27T04:46:39.919Z,10.70
2019-04-27T04:49:06.306Z,10.70
2019-04-27T04:51:32.478Z,9.90
2019-04-27T04:53:59.829Z,9.60
2019-04-27T04:56:29.202Z,9.40
2019-04-27T04:58:55.562Z,9.20
2019-04-27T05:01:21.766Z,9.10
2019-04-27T05:03:48.856Z,9.20
2019-04-27T05:06:15.112Z,9.20
2019-04-27T05:08:41.318Z,9.20
2019-04-27T05:11:09.501Z,9.20
2019-04-27T05:13:35.475Z,9.20
2019-04-27T05:16:01.666Z,9.20
2019-04-27T05:18:29.348Z,9.20
2019-04-27T05:20:58.605Z,9.30
2019-04-27T05:23:24.918Z,9.30
2019-04-27T05:25:51.101Z,9.40
2019-04-27T05:28:18.762Z,9.40
2019-04-27T05:30:45.152Z,9.50
2019-04-27T05:33:11.334Z,9.50
2019-04-27T05:35:40.646Z,9.60
2019-04-27T05:38:07.218Z,9.60
2019-04-27T05:40:33.486Z,9.50
2019-04-27T05:42:59.663Z,9.50
2019-04-27T05:45:33.954Z,9.40
2019-04-27T05:48:01.550Z,9.40
2019-04-27T05:50:36.143Z,9.30
2019-04-27T05:52:55.806Z,9.30
2019-04-27T05:55:21.974Z,9.20
2019-04-27T05:57:49.515Z,9.30
2019-04-27T06:00:19.173Z,9.20
2019-04-27T06:02:45.491Z,9.30
2019-04-27T06:05:11.664Z,9.30
2019-04-27T06:07:39.502Z,9.30
2019-04-27T06:10:05.821Z,9.30
2019-04-27T06:12:31.994Z,9.40
2019-04-27T06:14:59.884Z,9.50
2019-04-27T06:17:26.171Z,9.60
2019-04-27T06:19:52.344Z,9.60
2019-04-27T06:22:18.970Z,9.70
2019-04-27T06:24:45.226Z,9.70
2019-04-27T06:27:11.407Z,9.70
2019-04-27T06:29:39.314Z,9.80
2019-04-27T06:32:05.687Z,9.90
2019-04-27T06:34:31.855Z,10.00
2019-04-27T06:36:59.744Z,10.10
2019-04-27T06:39:26.111Z,10.10
2019-04-27T06:41:52.592Z,10.20
2019-04-27T06:44:19.602Z,10.20
2019-04-27T06:46:45.971Z,10.30
2019-04-27T06:49:12.150Z,10.30
2019-04-27T06:51:39.981Z,10.40
2019-04-27T06:54:06.350Z,10.50
2019-04-27T06:56:32.527Z,10.60
2019-04-27T06:58:59.714Z,10.80
2019-04-27T07:01:26.033Z,10.80
2019-04-27T07:03:52.211Z,10.80
2019-04-27T07:06:18.755Z,10.90
2019-04-27T07:08:44.992Z,10.90
2019-04-27T07:11:11.529Z,11.00
2019-04-27T07:13:39.026Z,11.00
2019-04-27T07:16:05.330Z,10.90
2019-04-27T07:18:31.506Z,10.80
2019-04-27T07:20:58.659Z,10.90
2019-04-27T07:23:25.066Z,10.90
2019-04-27T07:25:51.239Z,11.00
2019-04-27T07:28:19.037Z,11.10
2019-04-27T07:30:45.418Z,11.20
2019-04-27T07:33:11.589Z,11.20
2019-04-27T07:35:39.299Z,11.20
2019-04-27T07:38:05.571Z,11.30
2019-04-27T07:40:31.739Z,11.40
2019-04-27T07:42:59.928Z,11.50
2019-04-27T07:45:29.495Z,11.50
2019-04-27T07:47:55.886Z,11.60
2019-04-27T07:50:22.090Z,11.80
2019-04-27T07:52:48.665Z,11.70
2019-04-27T07:55:14.922Z,11.80
2019-04-27T07:57:41.117Z,11.70
2019-04-27T08:00:09.348Z,11.80
2019-04-27T08:02:35.625Z,11.90
2019-04-27T08:05:03.132Z,12.10
2019-04-27T08:07:29.310Z,12.00
2019-04-27T08:09:55.475Z,12.10
2019-04-27T08:12:21.766Z,11.80
2019-04-27T08:14:49.102Z,11.50
2019-04-27T08:17:15.502Z,11.60
2019-04-27T08:19:41.699Z,11.70
2019-04-27T08:22:09.545Z,12.00
2019-04-27T08:24:35.854Z,12.30
2019-04-27T08:27:03.950Z,12.70
2019-04-27T08:29:32.987Z,12.80
2019-04-27T08:32:01.201Z,12.90
2019-04-27T08:34:29.601Z,12.80
2019-04-27T08:36:55.882Z,12.80
2019-04-27T08:39:22.151Z,12.80
2019-04-27T08:41:49.452Z,12.70
2019-04-27T08:44:15.718Z,12.70
2019-04-27T08:46:41.885Z,12.70
2019-04-27T08:49:08.426Z,12.60
2019-04-27T08:51:36.150Z,12.60
2019-04-27T08:54:02.324Z,12.80
2019-04-27T08:59:11.810Z,12.40
2019-04-27T09:01:39.683Z,12.40
2019-04-27T09:04:06.054Z,12.40
2019-04-27T09:06:33.559Z,12.30
2019-04-27T09:09:01.741Z,12.40
2019-04-27T09:11:29.816Z,12.60
2019-04-27T09:13:58.964Z,12.80
2019-04-27T09:16:25.422Z,12.90
2019-04-27T09:18:53.505Z,13.10
2019-04-27T09:21:19.786Z,13.20
2019-04-27T09:23:45.966Z,12.80
2019-04-27T09:26:12.142Z,12.70
2019-04-27T09:28:38.812Z,12.50
2019-04-27T09:31:05.118Z,11.80
2019-04-27T09:33:31.402Z,11.40
2019-04-27T09:35:57.977Z,11.10
2019-04-27T09:38:24.146Z,11.10
2019-04-27T09:40:50.317Z,11.20
2019-04-27T09:43:16.522Z,11.40
2019-04-27T09:45:42.690Z,11.60
2019-04-27T09:48:08.871Z,11.80
2019-04-27T09:50:36.211Z,12.20
2019-04-27T09:53:02.717Z,12.60
2019-04-27T09:55:28.896Z,13.10
2019-04-27T09:57:56.798Z,12.80
2019-04-27T10:00:23.958Z,12.60
2019-04-27T10:02:50.134Z,12.70
2019-04-27T10:05:17.186Z,12.50
2019-04-27T10:07:43.448Z,12.10
2019-04-27T10:10:09.626Z,12.50
2019-04-27T10:12:36.866Z,12.50
2019-04-27T10:15:06.021Z,12.50
2019-04-27T10:17:32.392Z,12.70
2019-04-27T10:19:58.598Z,13.00
2019-04-27T10:22:38.089Z,12.60
2019-04-27T10:24:52.759Z,12.50
2019-04-27T10:27:19.240Z,12.50
2019-04-27T10:29:46.754Z,12.40
2019-04-27T10:32:13.086Z,12.30
2019-04-27T10:34:39.383Z,12.30
2019-04-27T10:37:06.027Z,12.50
2019-04-27T10:39:32.432Z,12.70
2019-04-27T10:41:58.642Z,12.70
2019-04-27T10:44:26.565Z,12.80
2019-04-27T10:46:54.234Z,12.70
2019-04-27T10:49:20.495Z,12.40
2019-04-27T10:51:46.662Z,12.10
2019-04-27T10:54:12.842Z,12.10
2019-04-27T10:56:39.033Z,12.00
2019-04-27T10:59:06.493Z,12.00
2019-04-27T11:01:35.825Z,12.10
2019-04-27T11:04:05.981Z,12.20
2019-04-27T11:06:34.190Z,12.40
2019-04-27T11:09:00.465Z,13.10
2019-04-27T11:11:27.848Z,12.80
2019-04-27T11:13:54.239Z,12.50
2019-04-27T11:16:20.410Z,12.30
2019-04-27T11:18:47.170Z,12.50
2019-04-27T11:21:13.587Z,12.30
2019-04-27T11:23:39.766Z,12.40
2019-04-27T11:26:07.577Z,12.50
2019-04-27T11:28:33.843Z,12.80
2019-04-27T11:31:00.010Z,12.80
2019-04-27T11:33:26.414Z,12.70
2019-04-27T11:35:54.594Z,12.60
2019-04-27T11:38:20.766Z,12.80
2019-04-27T11:40:47.037Z,12.60
2019-04-27T11:43:13.218Z,12.70
2019-04-27T11:45:39.385Z,12.90
2019-04-27T11:48:05.854Z,12.80
2019-04-27T11:50:32.155Z,13.30
2019-04-27T11:52:58.331Z,13.30
2019-04-27T11:55:24.635Z,12.80
2019-04-27T11:57:50.809Z,12.40
2019-04-27T12:00:19.388Z,12.50
2019-04-27T12:02:48.170Z,12.80
2019-04-27T12:05:15.982Z,12.40
2019-04-27T12:07:42.331Z,12.50
2019-04-27T12:10:08.613Z,12.90
2019-04-27T12:12:36.330Z,13.00
2019-04-27T12:15:05.763Z,12.90
2019-04-27T12:17:32.210Z,12.70
2019-04-27T12:19:58.388Z,12.80
2019-04-27T12:22:24.561Z,13.10
2019-04-27T12:24:50.767Z,13.10
2019-04-27T12:27:18.942Z,13.00
2019-04-27T12:29:47.272Z,13.10
2019-04-27T12:32:15.550Z,12.80
2019-04-27T12:34:41.794Z,12.90
2019-04-27T12:37:07.970Z,12.50
2019-04-27T12:39:34.246Z,12.90
2019-04-27T12:42:00.418Z,12.90
2019-04-27T12:44:26.589Z,13.00
2019-04-27T12:46:52.790Z,12.80
2019-04-27T12:49:18.990Z,13.00
2019-04-27T12:51:45.669Z,12.80
2019-04-27T12:54:13.846Z,12.90
2019-04-27T12:56:41.926Z,12.70
2019-04-27T12:59:10.002Z,12.80
2019-04-27T13:01:36.212Z,12.30
2019-04-27T13:04:03.066Z,12.40
2019-04-27T13:06:29.233Z,12.90
2019-04-27T13:08:55.845Z,12.90
2019-04-27T13:11:23.030Z,13.20
2019-04-27T13:13:49.294Z,13.30
2019-04-27T13:16:16.653Z,13.30
2019-04-27T13:18:42.866Z,13.70
2019-04-27T13:21:09.042Z,13.40
2019-04-27T13:23:37.050Z,13.40
2019-04-27T13:26:03.225Z,13.30
2019-04-27T13:28:29.486Z,13.40
2019-04-27T13:30:56.023Z,13.30
2019-04-27T13:33:22.368Z,13.20
2019-04-27T13:35:48.547Z,13.00
2019-04-27T13:38:16.169Z,13.40
2019-04-27T13:40:42.733Z,13.70
2019-04-27T13:43:10.810Z,13.80
2019-04-27T13:45:38.926Z,13.60
2019-04-27T13:48:07.012Z,13.70
2019-04-27T13:50:35.468Z,13.00
2019-04-27T13:53:03.261Z,13.00
2019-04-27T13:55:29.433Z,13.00
2019-04-27T13:57:55.608Z,13.50
2019-04-27T14:00:22.008Z,13.90
2019-04-27T14:02:48.174Z,13.30
2019-04-27T14:05:14.787Z,13.20
2019-04-27T14:07:40.989Z,13.10
2019-04-27T14:10:07.163Z,13.20
2019-04-27T14:12:33.334Z,13.00
2019-04-27T14:14:59.538Z,13.40
2019-04-27T14:17:25.727Z,13.60
2019-04-27T14:19:51.902Z,13.20
2019-04-27T14:22:18.296Z,13.30
2019-04-27T14:24:44.572Z,12.90
2019-04-27T14:27:10.957Z,12.70
2019-04-27T14:29:39.049Z,12.70
2019-04-27T14:32:05.454Z,12.90
2019-04-27T14:34:31.630Z,13.20
2019-04-27T14:36:58.729Z,13.10
2019-04-27T14:39:25.215Z,13.10
2019-04-27T14:41:51.394Z,13.30
2019-04-27T14:44:18.729Z,13.50
2019-04-27T14:46:45.075Z,13.80
2019-04-27T14:49:11.250Z,13.70
2019-04-27T14:51:39.881Z,13.90
2019-04-27T14:54:06.804Z,13.60
2019-04-27T14:56:33.173Z,13.60
2019-04-27T14:58:59.375Z,13.70
2019-04-27T15:01:25.542Z,13.70
2019-04-27T15:03:51.822Z,13.60
2019-04-27T15:06:19.909Z,13.90
2019-04-27T15:08:47.069Z,13.40
2019-04-27T15:11:17.324Z,13.40
2019-04-27T15:13:45.911Z,13.70
2019-04-27T15:16:10.550Z,13.60
2019-04-27T15:18:39.806Z,13.30
2019-04-27T15:21:06.635Z,13.40
2019-04-27T15:23:32.922Z,13.30
2019-04-27T15:26:00.392Z,13.20
2019-04-27T15:28:28.675Z,13.40
2019-04-27T15:30:56.748Z,13.40
2019-04-27T15:33:24.830Z,13.40
2019-04-27T15:35:52.937Z,13.70
2019-04-27T15:38:21.021Z,13.50
2019-04-27T15:40:54.281Z,13.70
2019-04-27T15:43:23.047Z,13.70
2019-04-27T15:45:48.478Z,14.00
2019-04-27T15:48:14.868Z,13.80
2019-04-27T15:50:41.150Z,13.70
2019-04-27T15:53:12.363Z,13.30
2019-04-27T15:55:38.964Z,13.40
2019-04-27T15:58:03.421Z,13.60
2019-04-27T16:00:29.691Z,13.50
2019-04-27T16:02:55.963Z,13.30
2019-04-27T16:05:23.589Z,13.00
2019-04-27T16:07:50.630Z,13.10
2019-04-27T16:10:17.736Z,13.00
2019-04-27T16:12:54.772Z,13.10
2019-04-27T16:15:13.447Z,13.00
2019-04-27T16:17:43.012Z,12.80
2019-04-27T16:20:10.483Z,13.00
2019-04-27T16:22:36.745Z,12.80
2019-04-27T16:25:04.414Z,12.80
2019-04-27T16:27:34.168Z,12.80
2019-04-27T16:30:04.773Z,12.80
2019-04-27T16:32:26.663Z,12.90
2019-04-27T16:34:52.866Z,12.80
2019-04-27T16:37:22.513Z,12.80
2019-04-27T16:39:49.584Z,12.70
2019-04-27T16:42:16.033Z,12.90
2019-04-27T16:44:44.266Z,12.80
2019-04-27T16:47:12.501Z,12.80
2019-04-27T16:49:38.579Z,12.80
2019-04-27T16:52:04.753Z,12.80
2019-04-27T16:54:30.931Z,12.70
2019-04-27T16:57:03.256Z,12.70
2019-04-27T16:59:40.692Z,12.70
2019-04-27T17:01:53.279Z,12.80
2019-04-27T17:04:19.498Z,12.80
2019-04-27T17:06:46.379Z,12.80
2019-04-27T17:09:13.156Z,12.70
2019-04-27T17:11:43.765Z,12.80
2019-04-27T17:14:09.638Z,12.70
2019-04-27T17:16:39.001Z,12.60
2019-04-27T17:19:09.033Z,12.60
2019-04-27T17:21:38.616Z,12.60
2019-04-27T17:24:03.986Z,12.50
2019-04-27T17:26:30.377Z,12.50
2019-04-27T17:28:59.181Z,12.50
2019-04-27T17:31:28.769Z,12.40
2019-04-27T17:33:58.612Z,12.20
2019-04-27T17:36:24.931Z,12.40
2019-04-27T17:38:51.259Z,12.40
2019-04-27T17:41:18.395Z,12.40
2019-04-27T17:43:44.678Z,12.30
2019-04-27T17:46:11.494Z,12.50
2019-04-27T17:48:38.943Z,12.40
2019-04-27T17:51:05.127Z,12.30
2019-04-27T17:53:33.119Z,12.40
2019-04-27T17:56:02.683Z,12.30
2019-04-27T17:58:28.653Z,12.40
2019-04-27T18:00:55.050Z,12.30
2019-04-27T18:03:21.329Z,12.30
2019-04-27T18:05:49.331Z,12.20
2019-04-27T18:08:19.998Z,12.30
2019-04-27T18:10:43.702Z,12.20
2019-04-27T18:13:09.869Z,12.30
2019-04-27T18:15:36.044Z,12.20
2019-04-27T18:18:04.226Z,12.20
2019-04-27T18:20:30.418Z,12.20
2019-04-27T18:22:58.494Z,12.20
2019-04-27T18:25:24.878Z,12.30
2019-04-27T18:27:51.069Z,12.20
2019-04-27T18:30:19.190Z,12.10
2019-04-27T18:32:45.342Z,12.10
2019-04-27T18:35:11.819Z,12.20
2019-04-27T18:37:38.951Z,12.10
2019-04-27T18:40:05.206Z,12.20
2019-04-27T18:42:31.382Z,12.10
2019-04-27T18:45:06.004Z,12.10
2019-04-27T18:47:25.547Z,12.10
2019-04-27T18:49:53.632Z,12.10
2019-04-27T18:52:21.707Z,12.10
2019-04-27T18:54:47.902Z,12.10
2019-04-27T18:57:15.243Z,12.00
2019-04-27T18:59:42.051Z,12.00
2019-04-27T19:02:08.587Z,12.10
2019-04-27T19:04:34.919Z,12.10
2019-04-27T19:07:01.087Z,12.00
2019-04-27T19:09:27.282Z,12.00
2019-04-27T19:11:56.602Z,12.10
2019-04-27T19:14:21.889Z,12.20
2019-04-27T19:16:48.508Z,12.10
2019-04-27T19:19:14.770Z,12.10
2019-04-27T19:21:41.049Z,12.00
2019-04-27T19:24:08.908Z,12.10
2019-04-27T19:26:38.264Z,12.20
2019-04-27T19:29:08.461Z,12.20
2019-04-27T19:31:38.200Z,12.20
2019-04-27T19:34:04.489Z,12.10
2019-04-27T19:36:30.667Z,12.00
2019-04-27T19:38:58.357Z,12.00
2019-04-27T19:41:24.697Z,11.90
2019-04-27T19:43:50.866Z,11.90
2019-04-27T19:46:17.167Z,11.90
2019-04-27T19:48:43.346Z,11.80
2019-04-27T19:51:09.538Z,11.80
2019-04-27T19:53:35.824Z,11.80
2019-04-27T19:56:02.021Z,11.80
2019-04-27T19:58:30.781Z,11.80
2019-04-27T20:01:10.916Z,11.70
2019-04-27T20:03:28.933Z,11.70
2019-04-27T20:05:55.142Z,11.70
2019-04-27T20:08:23.250Z,11.60
2019-04-27T20:10:49.426Z,11.60
2019-04-27T20:13:15.874Z,11.60
2019-04-27T20:15:42.974Z,11.70
2019-04-27T20:18:10.821Z,11.60
2019-04-27T20:20:37.202Z,11.60
2019-04-27T20:23:03.429Z,11.60
2019-04-27T20:25:31.269Z,11.70
2019-04-27T20:27:57.561Z,11.60
2019-04-27T20:30:24.798Z,11.60
2019-04-27T20:32:51.135Z,11.70
2019-04-27T20:35:17.389Z,11.60
2019-04-27T20:37:43.578Z,11.70
2019-04-27T20:40:11.642Z,11.70
2019-04-27T20:42:38.126Z,11.70
2019-04-27T20:45:04.729Z,11.60
2019-04-27T20:47:31.097Z,11.50
2019-04-27T20:49:57.254Z,11.50
2019-04-27T20:52:25.371Z,11.50
2019-04-27T20:54:51.561Z,11.50
2019-04-27T20:57:17.818Z,11.50
2019-04-27T20:59:44.096Z,11.40
2019-04-27T21:02:12.170Z,11.40
2019-04-27T21:04:41.913Z,11.40
2019-04-27T21:07:11.049Z,11.50
2019-04-27T21:09:37.426Z,11.40
2019-04-27T21:12:03.610Z,11.40
2019-04-27T21:14:31.681Z,11.40
2019-04-27T21:16:58.007Z,11.40
2019-04-27T21:19:24.194Z,11.40
2019-04-27T21:21:51.005Z,11.40
2019-04-27T21:24:17.366Z,11.50
2019-04-27T21:26:43.546Z,11.50
2019-04-27T21:29:11.548Z,11.50
2019-04-27T21:31:37.794Z,11.50
2019-04-27T21:34:04.071Z,11.50
2019-04-27T21:36:30.976Z,11.50
2019-04-27T21:38:57.343Z,11.50
2019-04-27T21:41:23.599Z,11.50
2019-04-27T21:43:51.209Z,11.40
2019-04-27T21:46:17.490Z,11.30
2019-04-27T21:48:43.663Z,11.00
2019-04-27T21:51:11.696Z,10.90
2019-04-27T21:53:41.159Z,10.80
2019-04-27T21:56:08.717Z,10.50
2019-04-27T21:58:34.958Z,10.00
2019-04-27T22:01:03.037Z,10.00
2019-04-27T22:03:31.606Z,9.90
2019-04-27T22:05:57.914Z,9.90
2019-04-27T22:08:24.083Z,9.70
2019-04-27T22:10:50.258Z,9.60
2019-04-27T22:13:16.699Z,9.70
2019-04-27T22:15:43.666Z,9.70
2019-04-27T22:18:11.152Z,9.80
2019-04-27T22:20:37.955Z,10.00
2019-04-27T22:23:06.538Z,10.10
2019-04-27T22:25:35.819Z,10.20
2019-04-27T22:28:02.502Z,10.20
2019-04-27T22:30:28.986Z,9.90
2019-04-27T22:32:55.262Z,9.80
2019-04-27T22:35:22.451Z,9.90
2019-04-27T22:37:48.998Z,9.80
2019-04-27T22:40:15.490Z,9.70
2019-04-27T22:42:43.623Z,9.60
2019-04-27T22:45:11.696Z,9.50
2019-04-27T22:47:37.862Z,9.50
2019-04-27T22:50:04.871Z,9.50
2019-04-27T22:52:31.045Z,9.30
2019-04-27T22:54:57.322Z,9.00
2019-04-27T22:57:25.430Z,8.90
2019-04-27T22:59:53.506Z,8.80
2019-04-27T23:02:21.848Z,8.80
2019-04-27T23:04:51.646Z,8.90
2019-04-27T23:07:18.274Z,8.90
2019-04-27T23:09:44.448Z,9.00
2019-04-27T23:12:11.960Z,9.00
2019-04-27T23:14:38.446Z,9.00
2019-04-27T23:17:08.154Z,9.10
2019-04-27T23:19:34.462Z,9.00
2019-04-27T23:22:00.865Z,8.90
2019-04-27T23:24:27.004Z,8.90
2019-04-27T23:26:53.302Z,8.80
2019-04-27T23:29:21.269Z,8.90
2019-04-27T23:31:49.358Z,8.90
2019-04-27T23:34:15.558Z,8.90
2019-04-27T23:36:44.166Z,8.90
2019-04-27T23:39:09.719Z,9.00
2019-04-27T23:41:35.998Z,9.00
2019-04-27T23:44:02.173Z,9.10
2019-04-27T23:46:28.345Z,9.00
2019-04-27T23:48:54.551Z,9.10
2019-04-27T23:51:22.622Z,9.00
2019-04-27T23:53:48.790Z,9.00
2019-04-27T23:56:14.999Z,9.00
2019-04-27T23:58:41.178Z,9.00
